Time;durP1;ratioP1;P1;durP2;ratioP2;P2;SDS_P1;SDS_P2;PMS_P1;PMS_P2;Temp;Humidity;BMP_temperature;BMP_pressure;BME280_temperature;BME280_humidity;BME280_pressure;Samples;Min_cycle;Max_cycle;Signal;HPM_P1;HPM_P2
2022/04/25 00:01:41;;;;;;;56.78;26.85;;;;;;;16.70;54.03;98762.69;5004372;28;20032;-75
2022/04/25 00:04:07;;;;;;;56.53;26.98;;;;;;;16.80;54.19;98776.41;5020104;28;20438;-75
2022/04/25 00:06:33;;;;;;;57.92;26.58;;;;;;;16.79;54.06;98766.75;5031489;28;20052;-75
2022/04/25 00:08:59;;;;;;;56.03;27.35;;;;;;;16.84;53.96;98768.78;5022974;28;20131;-74
2022/04/25 00:11:25;;;;;;;55.05;27.20;;;;;;;16.82;54.04;98771.66;5022719;28;20051;-75
2022/04/25 00:13:51;;;;;;;61.05;28.52;;;;;;;16.73;54.12;98770.31;5039630;28;20093;-75
2022/04/25 00:16:18;;;;;;;59.20;28.10;;;;;;;16.63;54.66;98771.84;5022529;28;20049;-76
2022/04/25 00:18:45;;;;;;;58.65;27.48;;;;;;;16.74;54.32;98771.94;5023313;28;20577;-76
2022/04/25 00:21:11;;;;;;;70.35;29.95;;;;;;;16.77;54.10;98778.75;5039871;28;20040;-76
2022/04/25 00:23:36;;;;;;;64.97;29.30;;;;;;;16.67;54.33;98773.84;5039182;28;20079;-76
2022/04/25 00:26:04;;;;;;;61.55;28.10;;;;;;;16.68;54.44;98783.53;5022335;28;20053;-75
2022/04/25 00:28:30;;;;;;;64.75;28.80;;;;;;;16.75;54.16;98786.16;5055646;28;20044;-75
2022/04/25 00:30:56;;;;;;;66.57;29.05;;;;;;;16.69;54.17;98782.50;5038785;28;20051;-75
2022/04/25 00:33:21;;;;;;;64.25;28.73;;;;;;;16.70;54.18;98776.09;5022285;28;20110;-75
2022/04/25 00:35:47;;;;;;;69.45;28.98;;;;;;;16.68;54.27;98770.13;5005023;28;20566;-76
2022/04/25 00:38:13;;;;;;;70.35;30.02;;;;;;;16.79;53.90;98779.31;5057232;28;20036;-76
2022/04/25 00:40:40;;;;;;;64.68;29.55;;;;;;;16.70;54.09;98746.59;5006413;28;20385;-76
2022/04/25 00:43:06;;;;;;;65.38;28.13;;;;;;;16.67;54.33;98771.19;5039087;28;20059;-76
2022/04/25 00:45:33;;;;;;;66.88;29.02;;;;;;;16.77;54.12;98766.13;5038645;28;20500;-75
2022/04/25 00:47:59;;;;;;;64.38;28.92;;;;;;;16.55;54.26;98748.78;5022194;28;20496;-74
2022/04/25 00:50:25;;;;;;;66.95;29.10;;;;;;;16.48;54.33;98739.97;5022496;28;20043;-75
2022/04/25 00:52:51;;;;;;;70.35;29.92;;;;;;;16.66;54.21;98764.19;5022629;28;20419;-75
2022/04/25 00:55:17;;;;;;;67.53;29.30;;;;;;;16.67;54.41;98765.81;5006591;28;20496;-75
2022/04/25 00:57:44;;;;;;;82.85;31.45;;;;;;;16.83;54.12;98767.13;5024320;28;20074;-76
2022/04/25 01:00:12;;;;;;;71.05;31.20;;;;;;;16.80;54.43;98770.25;5006779;28;20060;-76
2022/04/25 01:02:38;;;;;;;81.75;31.95;;;;;;;16.78;54.13;98775.00;5022160;28;20044;-75
2022/04/25 01:05:05;;;;;;;68.97;30.50;;;;;;;16.86;54.19;98772.06;5055305;28;20105;-75
2022/04/25 01:07:36;;;;;;;74.82;31.85;;;;;;;16.89;53.64;98747.50;5038657;28;20458;-77
2022/04/25 01:10:06;;;;;;;70.45;30.83;;;;;;;17.08;53.50;98777.88;5023287;28;20067;-74
2022/04/25 01:12:33;;;;;;;64.18;30.90;;;;;;;16.86;53.66;98780.09;5010269;28;20072;-75
2022/04/25 01:15:03;;;;;;;70.35;30.42;;;;;;;16.97;53.85;98782.09;5026543;28;20057;-76
2022/04/25 01:17:29;;;;;;;84.27;32.57;;;;;;;16.94;53.62;98793.25;5043703;28;20041;-75
2022/04/25 01:19:56;;;;;;;77.90;32.38;;;;;;;17.03;53.35;98789.25;5042533;28;20056;-75
2022/04/25 01:22:31;;;;;;;71.72;32.88;;;;;;;17.09;53.53;98792.91;5042374;28;20109;-75
2022/04/25 01:27:42;;;;;;;50.65;25.42;;;;;;;16.90;53.64;98783.19;5025578;28;20133;-75
2022/04/25 01:30:09;;;;;;;48.85;26.27;;;;;;;17.02;53.24;98782.22;5022183;28;20044;-76
2022/04/25 01:32:37;;;;;;;43.53;25.23;;;;;;;17.05;53.44;98779.13;5038497;28;20052;-76
2022/04/25 01:35:04;;;;;;;47.42;24.60;;;;;;;17.17;53.09;98782.72;5055503;28;20139;-75
2022/04/25 01:37:37;;;;;;;43.08;23.20;;;;;;;17.13;53.25;98786.09;5056684;28;20074;-75
2022/04/25 01:40:04;;;;;;;41.67;22.98;;;;;;;17.16;52.66;98778.38;5040468;28;20052;-76
2022/04/25 01:42:30;;;;;;;36.35;21.10;;;;;;;16.98;52.76;98781.03;5004348;28;20048;-75
2022/04/25 01:44:56;;;;;;;33.03;18.67;;;;;;;16.81;52.70;98747.75;5004293;28;20036;-76
2022/04/25 01:47:22;;;;;;;33.67;19.88;;;;;;;17.00;52.59;98776.28;5021031;28;20095;-75
2022/04/25 01:49:49;;;;;;;35.47;21.63;;;;;;;17.03;52.66;98773.16;5003014;28;20121;-79
2022/04/25 01:52:22;;;;;;;30.40;18.85;;;;;;;17.23;52.67;98783.69;5019473;28;20072;-75
2022/04/25 01:54:48;;;;;;;27.98;17.15;;;;;;;16.73;53.36;98775.66;5036376;28;20071;-78
2022/04/25 01:57:14;;;;;;;28.05;16.73;;;;;;;16.97;53.07;98773.22;5021253;28;20083;-75
2022/04/25 01:59:40;;;;;;;28.98;18.45;;;;;;;16.93;52.81;98772.03;5005617;28;20044;-74
2022/04/25 02:02:06;;;;;;;26.38;17.05;;;;;;;16.91;52.75;98780.28;5005196;28;20071;-75
2022/04/25 02:04:32;;;;;;;28.70;17.20;;;;;;;16.89;52.89;98777.00;5054295;28;20071;-75
2022/04/25 02:06:58;;;;;;;26.77;16.88;;;;;;;16.84;52.68;98785.69;5021310;28;20037;-77
2022/04/25 02:09:24;;;;;;;26.25;15.65;;;;;;;16.61;53.15;98776.56;5022052;28;20048;-76
2022/04/25 02:11:50;;;;;;;32.60;16.85;;;;;;;16.76;53.05;98780.59;5055381;28;20393;-76
2022/04/25 02:14:16;;;;;;;24.98;15.98;;;;;;;16.92;52.63;98784.59;5006345;28;20044;-76
2022/04/25 02:16:42;;;;;;;21.20;14.13;;;;;;;16.79;52.54;98780.16;5037180;28;20516;-76
2022/04/25 02:19:08;;;;;;;24.58;14.93;;;;;;;16.90;52.30;98777.81;5004435;28;20055;-76
2022/04/25 02:21:34;;;;;;;25.00;14.43;;;;;;;16.81;52.14;98786.13;5020923;28;20056;-76
2022/04/25 02:24:00;;;;;;;22.95;14.07;;;;;;;16.89;52.13;98785.03;5020898;28;20503;-75
2022/04/25 02:26:25;;;;;;;21.92;14.77;;;;;;;16.80;52.22;98775.63;5053602;28;20044;-75
2022/04/25 02:28:54;;;;;;;21.60;13.88;;;;;;;16.88;52.18;98790.63;5021012;28;20051;-77
2022/04/25 02:31:21;;;;;;;24.15;14.93;;;;;;;17.01;52.11;98785.13;5023819;28;20045;-80
2022/04/25 02:33:48;;;;;;;21.50;14.57;;;;;;;16.83;52.24;98791.28;5056236;28;20040;-76
2022/04/25 02:36:15;;;;;;;24.27;14.07;;;;;;;16.76;52.53;98788.63;5021479;28;20090;-76
2022/04/25 02:38:41;;;;;;;23.63;14.48;;;;;;;16.89;52.27;98787.72;5020941;28;20040;-76
2022/04/25 02:41:09;;;;;;;28.75;15.88;;;;;;;16.88;52.40;98790.63;5021321;28;20135;-75
2022/04/25 02:43:37;;;;;;;24.50;15.48;;;;;;;16.90;52.18;98800.06;5037434;28;20102;-77
2022/04/25 02:46:05;;;;;;;30.15;16.98;;;;;;;16.98;52.31;98797.13;5036743;28;20044;-76
2022/04/25 02:48:32;;;;;;;27.42;17.40;;;;;;;16.90;52.43;98801.97;5020442;28;20078;-75
2022/04/25 02:50:59;;;;;;;29.63;16.23;;;;;;;16.67;53.03;98805.19;5037955;28;20048;-76
2022/04/25 02:53:26;;;;;;;32.58;18.08;;;;;;;16.65;52.78;98794.69;5004921;28;20094;-76
2022/04/25 02:55:53;;;;;;;28.92;17.27;;;;;;;16.73;52.83;98807.84;5036651;28;20044;-77
2022/04/25 02:58:20;;;;;;;29.67;17.75;;;;;;;16.72;52.85;98800.84;5005102;28;20113;-75
2022/04/25 03:00:46;;;;;;;37.75;20.42;;;;;;;16.76;52.91;98812.78;5021555;28;20503;-76
2022/04/25 03:03:16;;;;;;;33.63;19.20;;;;;;;16.96;52.54;98811.81;5037992;28;20040;-75
2022/04/25 03:05:45;;;;;;;38.15;21.23;;;;;;;16.81;53.00;98806.75;5037329;28;20964;-76
2022/04/25 03:08:12;;;;;;;38.78;20.42;;;;;;;16.85;52.72;98808.78;5036997;28;20527;-75
2022/04/25 03:10:38;;;;;;;40.33;20.13;;;;;;;16.97;52.41;98803.53;5072329;28;20037;-76
2022/04/25 03:13:07;;;;;;;36.10;18.17;;;;;;;16.91;52.39;98799.06;5020665;28;20044;-75
2022/04/25 03:15:34;;;;;;;29.77;18.25;;;;;;;16.85;52.92;98798.06;5053758;28;20056;-76
2022/04/25 03:18:03;;;;;;;28.60;17.13;;;;;;;17.04;52.22;98806.16;5037735;28;20087;-77
2022/04/25 03:20:29;;;;;;;26.55;15.98;;;;;;;16.90;51.92;98810.81;5004691;28;20573;-74
2022/04/25 03:22:55;;;;;;;28.25;16.20;;;;;;;16.99;51.89;98808.69;5020500;28;20212;-76
2022/04/25 03:25:21;;;;;;;28.17;16.63;;;;;;;16.98;51.95;98804.34;5021303;28;20068;-76
2022/04/25 03:27:47;;;;;;;27.08;17.42;;;;;;;17.04;51.92;98811.50;5020625;28;20075;-76
2022/04/25 03:30:12;;;;;;;25.75;17.15;;;;;;;17.14;51.75;98806.50;5021180;28;20063;-74
2022/04/25 03:32:45;;;;;;;24.63;15.60;;;;;;;17.45;51.09;98811.81;5019848;28;20093;-72
2022/04/25 03:35:12;;;;;;;20.10;12.65;;;;;;;17.42;50.38;98818.41;5036775;28;20033;-76
2022/04/25 03:37:38;;;;;;;20.88;12.88;;;;;;;17.57;50.38;98820.78;5036463;28;20135;-74
2022/04/25 03:40:05;;;;;;;18.25;11.05;;;;;;;17.76;49.92;98812.50;5003030;28;20094;-74
2022/04/25 03:42:31;;;;;;;14.73;9.02;;;;;;;17.61;48.90;98813.91;5036537;28;20040;-74
2022/04/25 03:44:57;;;;;;;16.15;9.65;;;;;;;17.50;48.79;98811.94;5003074;28;20408;-73
2022/04/25 03:47:23;;;;;;;16.20;10.35;;;;;;;17.38;49.29;98802.97;5004618;28;20041;-74
2022/04/25 03:49:49;;;;;;;13.48;9.32;;;;;;;17.34;49.22;98817.88;5004208;28;20419;-73
2022/04/25 03:52:17;;;;;;;14.90;9.20;;;;;;;17.20;49.28;98810.97;5003532;28;20055;-73
2022/04/25 03:57:28;;;;;;;11.98;8.70;;;;;;;17.19;49.37;98815.50;5021919;28;20040;-75
2022/04/25 03:59:54;;;;;;;13.60;8.25;;;;;;;17.45;49.06;98811.81;5003111;28;20040;-76
2022/04/25 04:02:20;;;;;;;15.98;8.07;;;;;;;17.51;48.69;98802.88;5003117;28;20143;-75
2022/04/25 04:04:46;;;;;;;16.38;8.45;;;;;;;17.59;48.31;98805.28;5020385;28;20076;-75
2022/04/25 04:07:11;;;;;;;14.48;7.80;;;;;;;17.64;47.81;98808.91;5037467;28;20071;-75
2022/04/25 04:09:46;;;;;;;11.07;7.90;;;;;;;17.63;47.42;98803.78;5003662;28;20044;-76
2022/04/25 04:12:13;;;;;;;13.65;9.15;;;;;;;17.52;47.67;98789.22;5004887;28;20051;-74
2022/04/25 04:14:42;;;;;;;14.30;7.97;;;;;;;17.91;46.98;98790.66;5051783;28;20045;-74
2022/04/25 04:17:08;;;;;;;14.07;8.57;;;;;;;17.68;46.83;98793.19;5019032;28;20078;-75
2022/04/25 04:19:38;;;;;;;10.75;7.70;;;;;;;17.51;47.07;98784.06;5035224;28;20048;-72
2022/04/25 04:22:07;;;;;;;13.00;7.47;;;;;;;17.63;47.00;98801.91;5035814;28;20070;-71
2022/04/25 04:24:34;;;;;;;13.25;7.70;;;;;;;17.43;47.45;98803.94;5018814;28;20077;-71
2022/04/25 04:27:09;;;;;;;14.15;8.15;;;;;;;17.67;46.96;98797.72;5019460;28;20036;-71
2022/04/25 04:29:36;;;;;;;12.35;8.32;;;;;;;17.32;47.55;98795.78;5030029;28;20090;-71
2022/04/25 04:32:06;;;;;;;12.82;8.40;;;;;;;17.55;47.28;98786.09;5033393;28;20040;-71
2022/04/25 04:34:34;;;;;;;11.18;8.20;;;;;;;17.35;47.56;98793.50;5033998;28;20201;-72
2022/04/25 04:37:00;;;;;;;14.95;9.02;;;;;;;17.26;47.89;98757.25;5017463;28;20048;-71
2022/04/25 04:39:26;;;;;;;15.93;9.50;;;;;;;17.59;47.87;98792.66;5034011;28;20052;-71
2022/04/25 04:41:52;;;;;;;15.90;10.25;;;;;;;17.52;47.74;98791.91;5017801;28;20051;-73
2022/04/25 04:44:17;;;;;;;13.55;9.73;;;;;;;17.37;48.34;98786.06;5017659;28;20040;-70
2022/04/25 04:46:43;;;;;;;13.98;9.15;;;;;;;17.43;48.20;98773.59;5033423;28;20147;-69
2022/04/25 04:49:09;;;;;;;13.40;7.95;;;;;;;17.46;47.68;98774.00;5017763;28;20451;-69
2022/04/25 04:51:36;;;;;;;12.32;7.65;;;;;;;17.63;47.55;98784.97;5018165;28;20048;-69
2022/04/25 04:54:02;;;;;;;11.20;7.80;;;;;;;17.69;47.08;98789.44;5038176;28;20123;-72
2022/04/25 04:56:31;;;;;;;11.35;7.82;;;;;;;18.05;46.76;98789.44;5021320;28;20064;-71
2022/04/25 04:59:00;;;;;;;10.50;6.72;;;;;;;18.05;45.92;98806.34;5054892;28;20044;-71
2022/04/25 05:01:29;;;;;;;10.77;6.85;;;;;;;18.01;45.41;98781.00;5037293;28;20048;-70
2022/04/25 05:03:58;;;;;;;12.23;7.40;;;;;;;18.33;45.50;98808.47;5037528;28;20045;-71
2022/04/25 05:06:28;;;;;;;9.18;7.03;;;;;;;18.25;45.39;98811.50;5054128;28;20052;-71
2022/04/25 05:08:54;;;;;;;12.77;6.88;;;;;;;18.19;45.49;98804.31;5053780;28;20616;-73
2022/04/25 05:11:21;;;;;;;11.38;6.47;;;;;;;17.80;45.42;98823.63;5036417;28;20051;-70
2022/04/25 05:13:47;;;;;;;11.27;6.88;;;;;;;18.05;44.99;98810.94;5036300;28;20047;-69
2022/04/25 05:16:13;;;;;;;11.40;6.22;;;;;;;18.12;44.59;98801.75;5036066;28;20072;-69
2022/04/25 05:18:39;;;;;;;10.73;6.32;;;;;;;18.31;44.32;98815.97;5034963;28;20597;-70
2022/04/25 05:21:05;;;;;;;9.85;6.68;;;;;;;18.45;43.67;98831.72;5003340;28;20090;-70
2022/04/25 05:23:31;;;;;;;10.02;6.80;;;;;;;18.42;43.72;98823.28;5053326;28;20040;-70
2022/04/25 05:25:58;;;;;;;11.75;6.40;;;;;;;18.33;43.65;98813.84;5035645;28;20051;-70
2022/04/25 05:28:25;;;;;;;8.95;6.72;;;;;;;18.45;43.28;98838.97;5037404;28;20052;-70
2022/04/25 05:30:51;;;;;;;8.20;6.55;;;;;;;18.74;42.96;98842.69;5036671;28;20048;-70
2022/04/25 05:33:18;;;;;;;11.00;6.88;;;;;;;18.70;42.44;98836.94;5036027;28;20129;-70
2022/04/25 05:35:44;;;;;;;10.80;6.53;;;;;;;18.79;42.39;98829.38;5020274;28;20458;-70
2022/04/25 05:38:10;;;;;;;13.95;7.32;;;;;;;18.48;42.72;98837.69;5020311;28;20044;-70
2022/04/25 05:40:36;;;;;;;14.35;6.97;;;;;;;18.29;43.28;98791.19;5036792;28;20040;-70
2022/04/25 05:43:06;;;;;;;13.57;7.07;;;;;;;18.69;43.31;98847.94;5036591;28;20036;-70
2022/04/25 05:45:32;;;;;;;10.57;6.53;;;;;;;18.82;43.22;98845.06;5020141;28;20059;-70
2022/04/25 05:47:58;;;;;;;11.52;6.10;;;;;;;18.99;42.63;98843.34;5019676;28;20644;-70
2022/04/25 05:53:11;;;;;;;6.60;5.00;;;;;;;18.33;42.47;98841.56;5052293;28;20103;-69
2022/04/25 05:55:37;;;;;;;8.57;5.25;;;;;;;18.31;42.75;98821.34;5070440;28;20036;-71
2022/04/25 05:58:04;;;;;;;6.47;4.85;;;;;;;18.17;42.51;98826.03;5019711;28;20040;-69
2022/04/25 06:00:30;;;;;;;10.10;5.25;;;;;;;18.21;42.60;98851.44;5070623;28;20048;-70
2022/04/25 06:02:56;;;;;;;7.13;4.72;;;;;;;18.53;41.98;98862.84;5019467;28;20044;-70
2022/04/25 06:05:23;;;;;;;8.10;5.38;;;;;;;17.77;42.95;98816.00;5036689;28;20131;-70
2022/04/25 06:07:49;;;;;;;9.45;5.38;;;;;;;18.41;42.36;98843.97;5036443;28;20170;-69
2022/04/25 06:10:19;;;;;;;7.85;5.28;;;;;;;18.59;41.66;98848.47;5036306;28;20539;-69
2022/04/25 06:12:50;;;;;;;8.63;5.53;;;;;;;18.63;41.64;98857.75;5051352;28;20492;-69
2022/04/25 06:15:24;;;;;;;;;;;;;;;19.06;40.82;98850.28;5053224;28;20458;-68
2022/04/25 06:17:51;;;;;;;6.90;5.30;;;;;;;18.93;41.59;98852.34;5052608;28;19920;-70
2022/04/25 06:20:18;;;;;;;9.73;4.88;;;;;;;19.18;40.81;98878.03;5019742;28;20052;-70
2022/04/25 06:22:55;;;;;;;6.80;5.43;;;;;;;19.32;40.21;98867.91;5038002;28;20039;-70
2022/04/25 06:25:21;;;;;;;7.82;6.05;;;;;;;18.73;40.73;98867.97;5055301;28;20052;-70
2022/04/25 06:27:48;;;;;;;7.43;5.30;;;;;;;19.17;40.28;98860.25;5055810;28;20044;-70
2022/04/25 06:30:14;;;;;;;7.13;5.32;;;;;;;19.31;39.94;98861.69;5056087;28;20423;-70
2022/04/25 06:32:40;;;;;;;8.82;5.30;;;;;;;19.42;39.91;98831.25;5055121;28;20039;-71
2022/04/25 06:35:08;;;;;;;7.78;4.97;;;;;;;19.61;38.97;98846.25;5055729;28;20048;-69
2022/04/25 06:37:34;;;;;;;7.88;5.07;;;;;;;19.86;38.96;98849.53;5072278;28;20104;-70
2022/04/25 06:39:59;;;;;;;7.22;5.53;;;;;;;19.83;38.30;98841.88;5055699;28;20128;-70
2022/04/25 06:42:25;;;;;;;8.10;5.70;;;;;;;19.56;38.87;98848.81;5039213;28;20102;-68
2022/04/25 06:44:52;;;;;;;8.27;5.97;;;;;;;19.61;39.11;98813.94;5072083;28;20453;-69
2022/04/25 06:47:17;;;;;;;8.10;5.57;;;;;;;19.78;39.07;98835.56;5055541;28;20112;-69
2022/04/25 06:49:43;;;;;;;7.80;5.60;;;;;;;19.99;38.36;98833.06;5055434;28;20036;-69
2022/04/25 06:52:09;;;;;;;12.02;6.05;;;;;;;19.84;38.52;98807.69;5022145;28;20092;-70
2022/04/25 06:54:35;;;;;;;8.20;5.88;;;;;;;19.96;38.28;98786.91;5071653;28;20461;-68
2022/04/25 06:57:02;;;;;;;9.52;5.53;;;;;;;20.29;37.62;98807.81;5039291;28;20051;-71
2022/04/25 06:59:27;;;;;;;7.45;5.32;;;;;;;20.06;37.56;98774.44;5038616;28;20040;-69
2022/04/25 07:01:53;;;;;;;10.57;5.60;;;;;;;20.33;37.00;98801.72;5055467;28;20522;-70
2022/04/25 07:04:19;;;;;;;12.85;5.85;;;;;;;20.61;37.51;98801.72;5055145;28;20613;-69
2022/04/25 07:06:45;;;;;;;8.05;5.80;;;;;;;20.71;37.43;98812.66;5071753;28;20036;-69
2022/04/25 07:09:20;;;;;;;9.80;5.78;;;;;;;20.68;37.71;98807.75;5071948;28;20173;-69
2022/04/25 07:11:47;;;;;;;9.85;5.88;;;;;;;20.88;37.36;98810.81;5088515;28;20075;-69
2022/04/25 07:14:19;;;;;;;6.63;5.20;;;;;;;21.14;36.16;98821.00;5070553;28;20047;-69
2022/04/25 07:16:48;;;;;;;9.82;5.40;;;;;;;21.32;36.15;98807.28;5067532;28;20075;-69
2022/04/25 07:19:15;;;;;;;8.85;4.80;;;;;;;21.70;35.16;98828.09;5068305;28;20037;-69
2022/04/25 07:29:03;;;;;;;11.93;4.35;;;;;;;27.43;26.12;98807.84;4983712;28;20050;-68
2022/04/25 07:31:28;;;;;;;7.40;4.50;;;;;;;28.27;24.36;98790.00;4990574;28;20500;-69
2022/04/25 07:33:57;;;;;;;5.43;4.18;;;;;;;29.22;22.92;98803.13;5016119;28;20056;-68
2022/04/25 07:36:24;;;;;;;4.28;3.88;;;;;;;29.40;22.27;98758.50;5067770;28;20749;-68
2022/04/25 07:38:50;;;;;;;6.30;4.60;;;;;;;27.80;24.18;98791.63;5067968;28;20049;-68
2022/04/25 07:41:17;;;;;;;6.70;4.07;;;;;;;27.89;23.27;98780.94;5051142;28;20075;-69
2022/04/25 07:43:44;;;;;;;5.40;4.30;;;;;;;28.87;22.32;98768.13;5051610;28;20032;-68
2022/04/25 07:46:09;;;;;;;6.03;4.40;;;;;;;29.83;21.36;98789.19;5068917;28;20044;-68
2022/04/25 07:48:35;;;;;;;7.63;4.70;;;;;;;30.67;20.82;98763.88;5067415;28;20046;-68
2022/04/25 07:51:01;;;;;;;9.60;4.80;;;;;;;30.07;20.21;98756.13;5034638;28;20047;-68
2022/04/25 07:53:30;;;;;;;9.18;4.93;;;;;;;30.04;20.66;98757.56;5067401;28;20051;-70
2022/04/25 07:55:56;;;;;;;8.63;5.82;;;;;;;30.02;20.50;98750.75;5051235;28;20040;-70
2022/04/25 07:58:24;;;;;;;11.45;6.32;;;;;;;31.93;18.82;98758.75;5041209;28;20036;-70
2022/04/25 08:00:50;;;;;;;11.05;6.90;;;;;;;32.68;17.49;98733.69;5030999;28;20099;-71
2022/04/25 08:03:18;;;;;;;10.57;6.97;;;;;;;33.15;16.65;98756.66;5031486;28;20064;-69
2022/04/25 08:05:44;;;;;;;11.48;6.95;;;;;;;33.60;16.54;98753.16;4982416;28;20631;-71
2022/04/25 08:08:10;;;;;;;9.05;5.28;;;;;;;33.11;16.42;98755.69;5031006;28;20045;-70
2022/04/25 08:10:36;;;;;;;9.68;4.68;;;;;;;32.91;16.51;98773.66;5031260;28;20041;-70
2022/04/25 08:18:31;;;;;;;8.18;4.07;;;;;;;33.00;16.10;98749.69;5047843;28;20493;-70
2022/04/25 08:20:56;;;;;;;6.85;4.80;;;;;;;31.07;17.78;98757.44;5014695;28;20055;-72
2022/04/25 08:23:22;;;;;;;5.28;4.75;;;;;;;29.61;19.02;98726.09;5031354;28;20412;-69
2022/04/25 08:25:48;;;;;;;5.05;4.43;;;;;;;28.77;20.39;98731.97;5015780;28;20040;-69
2022/04/25 08:28:14;;;;;;;8.90;4.03;;;;;;;28.30;20.58;98735.63;5018586;28;20139;-70
2022/04/25 08:30:40;;;;;;;6.45;4.40;;;;;;;27.87;21.53;98745.75;5034982;28;20043;-69
2022/04/25 08:33:10;;;;;;;6.50;4.53;;;;;;;27.64;22.10;98742.97;5035128;28;20037;-70
2022/04/25 08:35:36;;;;;;;9.68;5.18;;;;;;;28.20;21.41;98733.03;5034815;28;20434;-70
2022/04/25 08:38:02;;;;;;;9.02;4.57;;;;;;;28.49;20.86;98738.41;5017902;28;20045;-70
2022/04/25 08:40:28;;;;;;;5.95;4.13;;;;;;;29.42;19.73;98728.91;5034691;28;20045;-70
2022/04/25 08:42:54;;;;;;;8.43;4.65;;;;;;;30.19;18.95;98738.06;5002145;28;20102;-70
2022/04/25 08:45:21;;;;;;;7.53;4.75;;;;;;;30.71;18.01;98709.22;5050650;28;20059;-70
2022/04/25 08:47:53;;;;;;;10.30;4.72;;;;;;;31.36;17.43;98715.00;5017561;28;20045;-70
2022/04/25 08:50:23;;;;;;;9.88;4.38;;;;;;;31.73;17.12;98709.84;5017962;28;20051;-70
2022/04/25 08:52:49;;;;;;;5.03;4.05;;;;;;;31.75;16.43;98698.56;5050844;28;20132;-71
2022/04/25 08:55:16;;;;;;;6.43;3.88;;;;;;;32.34;16.18;98692.38;5034425;28;20052;-71
2022/04/25 08:57:44;;;;;;;4.63;3.63;;;;;;;34.86;14.79;98709.78;5050313;28;20052;-71
2022/04/25 09:00:12;;;;;;;4.38;3.13;;;;;;;37.21;12.81;98695.34;5001557;28;20063;-71
2022/04/25 09:02:39;;;;;;;9.80;3.47;;;;;;;37.77;11.91;98705.13;5051881;28;20037;-71
2022/04/25 09:05:06;;;;;;;17.25;3.35;;;;;;;38.92;10.99;98699.81;5034260;28;20390;-71
2022/04/25 09:07:34;;;;;;;4.85;3.35;;;;;;;38.93;10.45;98701.41;5017105;28;20048;-71
2022/04/25 09:10:02;;;;;;;5.45;3.13;;;;;;;38.69;10.71;98703.31;5050613;28;20179;-72
2022/04/25 09:12:29;;;;;;;5.38;3.47;;;;;;;39.04;10.45;98674.69;5033909;28;20048;-71
2022/04/25 09:14:56;;;;;;;7.15;3.28;;;;;;;39.96;9.97;98673.19;5033664;28;20107;-69
2022/04/25 09:17:22;;;;;;;5.53;3.08;;;;;;;41.20;9.67;98695.91;5050292;28;20053;-71
2022/04/25 09:19:50;;;;;;;4.65;3.25;;;;;;;41.12;9.21;98683.09;5001245;28;20076;-71
2022/04/25 09:22:30;;;;;;;6.70;3.78;;;;;;;39.32;9.85;98614.88;5001363;28;20040;-71
2022/04/25 09:25:03;;;;;;;7.60;3.13;;;;;;;40.52;9.57;98689.88;5033912;28;20449;-71
2022/04/25 09:27:30;;;;;;;6.40;3.53;;;;;;;41.98;8.99;98680.69;5049683;28;20076;-71
2022/04/25 09:30:12;;;;;;;8.82;3.40;;;;;;;40.71;8.51;98683.38;5033905;28;20048;-71
2022/04/25 09:32:39;;;;;;;6.45;3.40;;;;;;;38.02;10.27;98658.56;5033651;28;20055;-70
2022/04/25 09:35:38;;;;;;;7.70;3.70;;;;;;;35.54;12.47;98662.13;5050478;28;20041;-71
2022/04/25 09:38:05;;;;;;;3.83;3.20;;;;;;;33.63;14.04;98656.09;5016431;28;20044;-70
2022/04/25 09:40:36;;;;;;;4.68;3.70;;;;;;;31.51;15.72;98630.31;5016791;28;20049;-69
2022/04/25 09:43:08;;;;;;;4.97;3.97;;;;;;;30.56;16.69;98649.28;5017160;28;20483;-70
2022/04/25 09:45:43;;;;;;;7.15;3.72;;;;;;;30.20;17.06;98648.53;5016331;28;20049;-69
2022/04/25 09:48:10;;;;;;;5.38;3.80;;;;;;;29.95;17.09;98640.84;5000376;28;20059;-69
2022/04/25 09:50:38;;;;;;;4.43;4.03;;;;;;;30.62;16.55;98648.03;5032978;28;20041;-69
2022/04/25 09:53:05;;;;;;;7.28;3.90;;;;;;;31.03;16.20;98629.44;5033394;28;20467;-69
2022/04/25 09:55:34;;;;;;;8.88;3.80;;;;;;;31.75;15.40;98635.41;5032904;28;20098;-70
2022/04/25 09:58:22;;;;;;;3.88;3.22;;;;;;;32.74;14.53;98640.84;5051073;28;20052;-69
2022/04/25 10:00:49;;;;;;;7.22;3.25;;;;;;;33.49;14.15;98635.47;5050749;28;20131;-71
2022/04/25 10:03:19;;;;;;;7.30;3.92;;;;;;;33.78;13.65;98652.78;5017222;28;20064;-71
2022/04/25 10:05:52;;;;;;;6.70;3.83;;;;;;;32.80;13.97;98643.06;5049662;28;20049;-69
2022/04/25 10:08:19;;;;;;;3.97;3.55;;;;;;;31.56;15.10;98626.63;5049274;28;20076;-70
2022/04/25 10:10:58;;;;;;;6.07;3.50;;;;;;;30.79;16.20;98620.75;5016305;28;20068;-70
2022/04/25 10:13:28;;;;;;;4.47;4.07;;;;;;;29.58;17.40;98647.34;5049951;28;20139;-70
2022/04/25 10:15:55;;;;;;;7.70;4.13;;;;;;;29.54;17.42;98625.25;5032838;28;20147;-69
2022/04/25 10:18:23;;;;;;;4.20;3.53;;;;;;;30.39;17.25;98652.72;5016458;28;20040;-70
2022/04/25 10:20:50;;;;;;;3.80;3.40;;;;;;;30.59;15.82;98644.00;5015904;28;20416;-70
2022/04/25 10:23:19;;;;;;;4.05;3.67;;;;;;;30.29;16.00;98641.19;5016438;28;20156;-70
2022/04/25 10:26:00;;;;;;;6.78;4.47;;;;;;;29.71;16.80;98588.28;5015503;28;20505;-70
2022/04/25 10:28:31;;;;;;;8.98;3.78;;;;;;;28.61;18.58;98615.78;5033863;28;20128;-69
2022/04/25 10:31:05;;;;;;;8.30;4.03;;;;;;;28.28;19.25;98627.78;5049472;28;20041;-69
2022/04/25 10:33:51;;;;;;;4.45;3.67;;;;;;;28.33;19.38;98630.44;5032911;28;20048;-71
2022/04/25 10:36:36;;;;;;;7.63;4.10;;;;;;;28.42;19.18;98632.19;5015825;28;20102;-70
2022/04/25 10:39:21;;;;;;;7.80;4.03;;;;;;;29.38;18.22;98629.38;5032133;28;20045;-70
2022/04/25 10:44:37;;;;;;;4.90;3.80;;;;;;;30.92;15.72;98633.59;5032342;28;20103;-70
2022/04/25 10:47:06;;;;;;;4.65;3.35;;;;;;;30.23;15.50;98647.91;5015614;28;20493;-71
2022/04/25 10:49:34;;;;;;;8.40;3.72;;;;;;;29.61;16.83;98646.72;5031666;28;20055;-70
2022/04/25 10:52:02;;;;;;;3.65;3.25;;;;;;;30.10;16.12;98637.75;5031881;28;20131;-69
2022/04/25 10:54:46;;;;;;;4.47;3.50;;;;;;;29.97;16.29;98639.41;5015633;28;20489;-70
2022/04/25 10:57:16;;;;;;;4.50;3.60;;;;;;;29.73;16.36;98621.59;5015499;28;20122;-69
2022/04/25 10:59:45;;;;;;;4.07;3.47;;;;;;;29.88;16.56;98619.34;5032375;28;20041;-70
2022/04/25 11:02:23;;;;;;;4.97;3.63;;;;;;;29.59;16.85;98625.16;5032307;28;20127;-69
2022/04/25 11:05:10;;;;;;;4.18;3.75;;;;;;;28.57;17.90;98603.84;5015515;28;20522;-71
2022/04/25 11:07:37;;;;;;;4.40;3.20;;;;;;;27.82;18.56;98597.56;5031709;28;20040;-71
2022/04/25 11:10:05;;;;;;;6.60;3.33;;;;;;;27.83;18.86;98615.59;5048198;28;20497;-71
2022/04/25 11:12:56;;;;;;;7.07;3.92;;;;;;;27.72;19.25;98597.72;5030498;28;20175;-70
2022/04/25 11:15:51;;;;;;;6.30;3.90;;;;;;;28.45;18.41;98617.13;5015062;28;20056;-71
2022/04/25 11:18:37;;;;;;;6.35;3.25;;;;;;;28.93;17.87;98608.38;4999031;28;20084;-70
2022/04/25 11:21:12;;;;;;;5.68;4.72;;;;;;;28.44;17.89;98643.63;5031976;28;20048;-70
2022/04/25 11:23:43;;;;;;;8.27;4.50;;;;;;;27.45;19.35;98614.72;5047963;28;20448;-71
2022/04/25 11:26:22;;;;;;;9.65;3.83;;;;;;;27.23;19.67;98608.94;5031478;28;20045;-69
2022/04/25 11:28:54;;;;;;;6.28;3.38;;;;;;;26.70;19.60;98614.69;5027054;28;20056;-70
2022/04/25 11:31:25;;;;;;;4.13;3.15;;;;;;;25.82;20.13;98603.88;5051363;28;20041;-70
2022/04/25 11:33:53;;;;;;;6.18;3.83;;;;;;;25.65;21.17;98608.84;5034141;28;20078;-69
2022/04/25 11:36:21;;;;;;;8.52;4.20;;;;;;;25.43;21.38;98600.25;5067953;28;20052;-70
2022/04/25 11:41:37;;;;;;;3.80;3.03;;;;;;;24.67;21.22;98598.81;5053389;28;20036;-68
2022/04/25 11:44:06;;;;;;;9.25;4.20;;;;;;;24.56;21.67;98608.84;5034570;28;20102;-70
2022/04/25 11:46:36;;;;;;;6.28;3.95;;;;;;;24.65;22.03;98579.22;5051664;28;20087;-69
2022/04/25 11:49:04;;;;;;;8.05;3.42;;;;;;;24.79;21.71;98561.31;5055200;28;20135;-69
2022/04/25 11:51:31;;;;;;;3.50;3.17;;;;;;;24.93;21.66;98592.25;5047857;28;20102;-70
2022/04/25 11:53:59;;;;;;;6.38;3.15;;;;;;;24.64;21.85;98569.47;5015115;28;20049;-71
2022/04/25 11:56:26;;;;;;;7.97;3.30;;;;;;;24.75;22.22;98562.97;5014963;28;20037;-69
2022/04/25 11:58:52;;;;;;;7.30;3.50;;;;;;;24.75;22.04;98568.41;5014239;28;20053;-69